Ellisburg, Pennsylvania
Current Conditions -  °F | °C
As of 8:56 PM on Friday 24 Oct 2014 (Local Time) from KELZ Reporting Station
Clear Clear  
Wind Chill:   Ceiling: Unl
Heat Index:   Visibility: 10mi
Dew Point: -1°   Wind: 9mph
Humidity: 58%   Direction: 300°WNW
Pressure: 29.97"   Gusts: NA
Location:  41.915°N, 77.8855°W
Report Text: KELZ 250056Z AUTO 30008KT 10SM CLR 07/M01 A2997 RMK AO2 SLP160 T00721006
Loading
Personal Weather Stations






























Interactive Weather Map
Tropical Storm Tracking
New forecast layout! Learn more

10-Day Weather Forecast

Advertisements
Track Severe Weather on mobile